createdAt,value
2018-05-23T00:02:17.131Z,102201.71
2018-05-23T00:04:43.548Z,102195.92
2018-05-23T00:07:09.802Z,102192.54
2018-05-23T00:09:36.187Z,102209.09
2018-05-23T00:12:02.605Z,102211.57
2018-05-23T00:14:28.889Z,102209.64
2018-05-23T00:16:55.359Z,102219.70
2018-05-23T00:19:21.734Z,102224.84
2018-05-23T00:21:48.011Z,102225.47
2018-05-23T00:24:14.627Z,102222.59
2018-05-23T00:26:40.998Z,102225.41
2018-05-23T00:29:07.277Z,102214.86
2018-05-23T00:31:33.755Z,102214.58
2018-05-23T00:34:00.203Z,102226.47
2018-05-23T00:36:26.427Z,102239.37
2018-05-23T00:38:52.966Z,102233.10
2018-05-23T00:41:19.342Z,102254.48
2018-05-23T00:43:45.565Z,102257.37
2018-05-23T00:46:12.320Z,102263.86
2018-05-23T00:48:38.676Z,102261.41
2018-05-23T00:51:04.891Z,102270.05
2018-05-23T00:53:31.385Z,102275.64
2018-05-23T00:55:57.815Z,102276.38
2018-05-23T00:58:24.037Z,102277.87
2018-05-23T01:00:50.505Z,102272.44
2018-05-23T01:03:16.981Z,102275.19
2018-05-23T01:05:43.199Z,102261.73
2018-05-23T01:08:09.734Z,102286.42
2018-05-23T01:10:36.076Z,102296.41
2018-05-23T01:13:02.308Z,102298.45
2018-05-23T01:15:28.854Z,102291.84
2018-05-23T01:17:55.221Z,102301.37
2018-05-23T01:20:21.496Z,102301.48
2018-05-23T01:22:47.928Z,102310.06
2018-05-23T01:25:14.389Z,102301.93
2018-05-23T01:27:40.634Z,102322.77
2018-05-23T01:30:07.026Z,102322.53
2018-05-23T01:32:33.661Z,102321.42
2018-05-23T01:34:59.927Z,102327.22
2018-05-23T01:37:26.399Z,102331.37
2018-05-23T01:39:52.782Z,102339.48
2018-05-23T01:42:18.969Z,102335.14
2018-05-23T01:44:45.680Z,102341.97
2018-05-23T01:47:12.187Z,102335.92
2018-05-23T01:49:38.432Z,102348.63
2018-05-23T01:52:04.815Z,102348.84
2018-05-23T01:54:31.237Z,102357.15
2018-05-23T01:56:57.497Z,102362.75
2018-05-23T01:59:23.916Z,102368.70
2018-05-23T02:01:50.439Z,102374.69
2018-05-23T02:04:16.676Z,102374.83
2018-05-23T02:06:43.357Z,102376.78
2018-05-23T02:09:09.774Z,102380.16
2018-05-23T02:11:36.022Z,102385.25
2018-05-23T02:14:02.406Z,102380.16
2018-05-23T02:16:28.865Z,102389.16
2018-05-23T02:18:55.107Z,102395.63
2018-05-23T02:21:21.601Z,102399.77
2018-05-23T02:23:48.073Z,102401.69
2018-05-23T02:26:14.333Z,102396.25
2018-05-23T02:28:40.929Z,102397.61
2018-05-23T02:31:07.297Z,102400.84
2018-05-23T02:33:33.603Z,102401.92
2018-05-23T02:36:00.064Z,102405.28
2018-05-23T02:38:26.452Z,102406.41
2018-05-23T02:40:52.624Z,102405.66
2018-05-23T02:43:19.001Z,102413.38
2018-05-23T02:45:45.388Z,102415.23
2018-05-23T02:48:12.014Z,102422.04
2018-05-23T02:50:38.594Z,102419.17
2018-05-23T02:53:05.237Z,102426.30
2018-05-23T02:55:31.500Z,102434.86
2018-05-23T02:57:58.106Z,102430.02
2018-05-23T03:00:24.438Z,102448.86
2018-05-23T03:02:50.653Z,102443.58
2018-05-23T03:05:17.251Z,102443.17
2018-05-23T03:07:43.555Z,102444.95
2018-05-23T03:10:10.425Z,102456.11
2018-05-23T03:12:36.855Z,102452.20
2018-05-23T03:15:03.201Z,102462.56
2018-05-23T03:17:29.459Z,102456.38
2018-05-23T03:19:56.197Z,102468.81
2018-05-23T03:22:22.573Z,102474.20
2018-05-23T03:24:48.792Z,102477.04
2018-05-23T03:27:15.116Z,102485.45
2018-05-23T03:29:41.764Z,102479.22
2018-05-23T03:32:07.995Z,102479.27
2018-05-23T03:34:34.397Z,102476.16
2018-05-23T03:37:00.789Z,102479.27
2018-05-23T03:39:27.097Z,102485.06
2018-05-23T03:41:53.805Z,102483.27
2018-05-23T03:44:20.509Z,102485.06
2018-05-23T03:46:46.729Z,102480.28
2018-05-23T03:49:13.601Z,102487.40
2018-05-23T03:51:39.987Z,102489.19
2018-05-23T03:54:06.236Z,102507.77
2018-05-23T03:56:32.526Z,102501.05
2018-05-23T03:58:58.986Z,102501.44
2018-05-23T04:01:37.203Z,102509.02
2018-05-23T04:04:15.943Z,102517.47
2018-05-23T04:06:54.259Z,102517.84
2018-05-23T04:09:20.864Z,102521.36
2018-05-23T04:11:47.099Z,102526.22
2018-05-23T04:14:13.397Z,102520.93
2018-05-23T04:16:40.211Z,102523.98
2018-05-23T04:19:06.411Z,102528.81
2018-05-23T04:21:32.623Z,102522.64
2018-05-23T04:23:59.272Z,102534.95
2018-05-23T04:26:25.481Z,102536.73
2018-05-23T04:28:51.735Z,102535.55
2018-05-23T04:31:18.881Z,102541.19
2018-05-23T04:33:45.212Z,102558.13
2018-05-23T04:36:11.413Z,102548.37
2018-05-23T04:38:38.139Z,102560.73
2018-05-23T04:41:04.358Z,102566.48
2018-05-23T04:43:30.563Z,102553.23
2018-05-23T04:45:57.197Z,102552.77
2018-05-23T04:48:23.468Z,102564.98
2018-05-23T04:50:50.092Z,102563.08
2018-05-23T04:53:16.565Z,102558.12
2018-05-23T04:55:42.778Z,102568.72
2018-05-23T04:58:08.963Z,102569.50
2018-05-23T05:00:35.850Z,102569.88
2018-05-23T05:03:02.134Z,102568.09
2018-05-23T05:05:28.346Z,102581.81
2018-05-23T05:07:55.025Z,102579.02
2018-05-23T05:10:21.280Z,102567.89
2018-05-23T05:12:47.493Z,102584.64
2018-05-23T05:15:14.001Z,102585.92
2018-05-23T05:17:40.209Z,102585.48
2018-05-23T05:20:06.481Z,102587.94
2018-05-23T05:22:33.131Z,102584.30
2018-05-23T05:24:59.382Z,102597.58
2018-05-23T05:27:25.635Z,102601.48
2018-05-23T05:29:52.387Z,102592.89
2018-05-23T05:32:18.707Z,102597.68
2018-05-23T05:34:44.968Z,102594.00
2018-05-23T05:37:11.569Z,102597.45
2018-05-23T05:39:37.808Z,102595.62
2018-05-23T05:42:04.078Z,102589.31
2018-05-23T05:44:30.711Z,102590.80
2018-05-23T05:46:56.989Z,102600.44
2018-05-23T05:49:23.256Z,102606.50
2018-05-23T05:51:50.596Z,102605.89
2018-05-23T05:54:16.804Z,102607.00
2018-05-23T05:56:43.051Z,102602.83
2018-05-23T05:59:09.903Z,102614.25
2018-05-23T06:01:36.119Z,102608.66
2018-05-23T06:04:02.392Z,102613.39
2018-05-23T06:06:28.903Z,102621.69
2018-05-23T06:08:55.089Z,102616.66
2018-05-23T06:11:21.373Z,102611.17
2018-05-23T06:13:48.201Z,102615.92
2018-05-23T06:16:14.418Z,102622.05
2018-05-23T06:18:40.670Z,102627.27
2018-05-23T06:21:07.372Z,102631.04
2018-05-23T06:23:33.634Z,102633.03
2018-05-23T06:25:59.863Z,102633.86
2018-05-23T06:28:26.408Z,102632.84
2018-05-23T06:30:52.644Z,102637.02
2018-05-23T06:33:18.902Z,102651.61
2018-05-23T06:35:46.029Z,102640.39
2018-05-23T06:38:12.264Z,102633.67
2018-05-23T06:40:38.530Z,102639.11
2018-05-23T06:43:05.237Z,102657.36
2018-05-23T06:45:31.461Z,102650.09
2018-05-23T06:47:57.685Z,102654.38
2018-05-23T06:50:24.565Z,102656.94
2018-05-23T06:52:51.031Z,102656.02
2018-05-23T06:55:17.309Z,102660.70
2018-05-23T06:57:44.392Z,102665.84
2018-05-23T07:00:10.609Z,102672.30
2018-05-23T07:02:36.892Z,102675.56
2018-05-23T07:05:03.659Z,102684.75
2018-05-23T07:07:29.915Z,102686.78
2018-05-23T07:09:56.136Z,102686.56
2018-05-23T07:12:22.853Z,102692.23
2018-05-23T07:14:49.096Z,102691.28
2018-05-23T07:17:15.318Z,102692.89
2018-05-23T07:19:42.167Z,102704.70
2018-05-23T07:22:08.418Z,102703.60
2018-05-23T07:24:34.658Z,102705.19
2018-05-23T07:27:01.371Z,102710.47
2018-05-23T07:29:27.600Z,102701.02
2018-05-23T07:31:53.864Z,102706.66
2018-05-23T07:34:20.669Z,102699.11
2018-05-23T07:36:46.968Z,102700.05
2018-05-23T07:39:13.191Z,102696.47
2018-05-23T07:41:39.807Z,102709.55
2018-05-23T07:44:06.146Z,102700.81
2018-05-23T07:46:32.388Z,102683.52
2018-05-23T07:48:58.865Z,102702.58
2018-05-23T07:51:25.125Z,102696.61
2018-05-23T07:53:51.568Z,102703.12
2018-05-23T07:56:18.171Z,102708.23
2018-05-23T07:58:44.437Z,102702.62
2018-05-23T08:01:10.742Z,102709.20
2018-05-23T08:03:37.397Z,102710.85
2018-05-23T08:06:03.687Z,102708.50
2018-05-23T08:08:30.375Z,102716.48
2018-05-23T08:10:57.157Z,102707.16
2018-05-23T08:13:23.388Z,102717.14
2018-05-23T08:15:49.806Z,102714.32
2018-05-23T08:18:16.477Z,102722.31
2018-05-23T08:20:42.734Z,102713.20
2018-05-23T08:23:09.243Z,102720.63
2018-05-23T08:25:35.971Z,102717.00
2018-05-23T08:28:02.201Z,102721.33
2018-05-23T08:30:28.618Z,102727.84
2018-05-23T08:32:55.246Z,102716.57
2018-05-23T08:35:21.504Z,102730.92
2018-05-23T08:37:47.962Z,102729.86
2018-05-23T08:40:14.571Z,102729.36
2018-05-23T08:42:41.021Z,102733.41
2018-05-23T08:45:07.514Z,102731.81
2018-05-23T08:47:34.147Z,102735.70
2018-05-23T08:50:00.362Z,102734.08
2018-05-23T08:52:26.738Z,102732.05
2018-05-23T08:54:53.504Z,102727.92
2018-05-23T08:57:19.676Z,102735.84
2018-05-23T08:59:46.194Z,102728.84
2018-05-23T09:02:13.125Z,102730.31
2018-05-23T09:04:39.303Z,102733.55
2018-05-23T09:07:05.975Z,102731.87
2018-05-23T09:09:32.433Z,102739.05
2018-05-23T09:11:58.700Z,102735.50
2018-05-23T09:14:25.177Z,102735.95
2018-05-23T09:16:52.002Z,102746.78
2018-05-23T09:19:18.270Z,102744.83
2018-05-23T09:21:44.717Z,102748.66
2018-05-23T09:24:11.765Z,102749.77
2018-05-23T09:26:38.009Z,102748.22
2018-05-23T09:29:04.488Z,102744.69
2018-05-23T09:31:31.138Z,102748.64
2018-05-23T09:33:57.378Z,102747.69
2018-05-23T09:36:23.790Z,102745.50
2018-05-23T09:38:50.252Z,102747.52
2018-05-23T09:41:16.481Z,102748.22
2018-05-23T09:43:42.884Z,102755.17
2018-05-23T09:46:10.200Z,102751.06
2018-05-23T09:48:36.471Z,102755.02
2018-05-23T09:51:02.899Z,102749.59
2018-05-23T09:53:29.632Z,102741.57
2018-05-23T09:55:55.846Z,102747.05
2018-05-23T09:58:22.471Z,102743.75
2018-05-23T10:00:49.104Z,102751.97
2018-05-23T10:03:15.402Z,102745.94
2018-05-23T10:05:41.881Z,102744.11
2018-05-23T10:08:08.388Z,102757.22
2018-05-23T10:10:34.609Z,102765.75
2018-05-23T10:13:01.004Z,102756.39
2018-05-23T10:15:28.025Z,102756.22
2018-05-23T10:17:54.242Z,102764.22
2018-05-23T10:20:20.753Z,102762.47
2018-05-23T10:22:47.418Z,102756.90
2018-05-23T10:25:13.633Z,102767.25
2018-05-23T10:27:40.299Z,102766.08
2018-05-23T10:30:07.104Z,102759.48
2018-05-23T10:32:33.408Z,102765.20
2018-05-23T10:35:00.056Z,102766.55
2018-05-23T10:37:27.013Z,102763.73
2018-05-23T10:39:53.248Z,102771.27
2018-05-23T10:42:19.601Z,102763.57
2018-05-23T10:44:46.259Z,102779.52
2018-05-23T10:47:12.501Z,102783.40
2018-05-23T10:49:39.018Z,102779.84
2018-05-23T10:52:05.645Z,102779.17
2018-05-23T10:54:31.876Z,102781.77
2018-05-23T10:56:58.315Z,102777.44
2018-05-23T10:59:25.080Z,102793.83
2018-05-23T11:01:51.339Z,102791.88
2018-05-23T11:04:17.970Z,102799.83
2018-05-23T11:06:44.377Z,102791.80
2018-05-23T11:09:10.618Z,102797.09
2018-05-23T11:11:37.263Z,102800.31
2018-05-23T11:14:04.033Z,102804.69
2018-05-23T11:16:30.283Z,102807.73
2018-05-23T11:18:56.973Z,102807.40
2018-05-23T11:21:23.853Z,102794.88
2018-05-23T11:23:50.093Z,102810.81
2018-05-23T11:26:16.344Z,102814.17
2018-05-23T11:28:42.800Z,102819.49
2018-05-23T11:31:09.024Z,102814.09
2018-05-23T11:33:35.402Z,102823.16
2018-05-23T11:36:01.890Z,102819.25
2018-05-23T11:38:28.162Z,102825.72
2018-05-23T11:40:54.478Z,102817.95
2018-05-23T11:43:21.079Z,102816.34
2018-05-23T11:45:47.304Z,102807.99
2018-05-23T11:48:13.989Z,102820.97
2018-05-23T11:50:40.689Z,102813.72
2018-05-23T11:53:06.890Z,102821.28
2018-05-23T11:55:33.358Z,102821.08
2018-05-23T11:58:00.246Z,102826.95
2018-05-23T12:00:26.477Z,102833.07
2018-05-23T12:02:52.970Z,102828.59
2018-05-23T12:05:19.642Z,102829.87
2018-05-23T12:07:45.859Z,102831.41
2018-05-23T12:10:12.293Z,102835.26
2018-05-23T12:12:39.213Z,102845.25
2018-05-23T12:15:05.412Z,102845.20
2018-05-23T12:17:31.905Z,102841.43
2018-05-23T12:19:58.580Z,102841.99
2018-05-23T12:22:24.750Z,102849.58
2018-05-23T12:24:51.177Z,102840.28
2018-05-23T12:27:17.627Z,102840.45
2018-05-23T12:29:43.882Z,102839.60
2018-05-23T12:32:10.505Z,102837.11
2018-05-23T12:34:37.285Z,102838.97
2018-05-23T12:37:03.473Z,102834.91
2018-05-23T12:39:29.852Z,102839.83
2018-05-23T12:41:56.439Z,102835.27
2018-05-23T12:44:22.637Z,102831.53
2018-05-23T12:46:49.199Z,102827.57
2018-05-23T12:49:15.779Z,102834.61
2018-05-23T12:51:41.961Z,102835.89
2018-05-23T12:54:08.544Z,102841.66
2018-05-23T12:56:35.239Z,102835.28
2018-05-23T12:59:01.407Z,102836.19
2018-05-23T13:01:27.802Z,102846.53
2018-05-23T13:03:54.362Z,102853.02
2018-05-23T13:06:20.571Z,102843.16
2018-05-23T13:08:46.931Z,102841.91
2018-05-23T13:11:13.451Z,102842.92
2018-05-23T13:13:39.626Z,102840.60
2018-05-23T13:16:05.977Z,102845.07
2018-05-23T13:18:32.527Z,102847.48
2018-05-23T13:20:58.700Z,102841.74
2018-05-23T13:23:25.271Z,102847.50
2018-05-23T13:25:52.304Z,102857.17
2018-05-23T13:28:18.439Z,102842.94
2018-05-23T13:30:44.972Z,102840.84
2018-05-23T13:33:11.923Z,102853.45
2018-05-23T13:35:38.088Z,102854.64
2018-05-23T13:38:04.654Z,102851.30
2018-05-23T13:40:31.188Z,102856.50
2018-05-23T13:42:57.370Z,102858.89
2018-05-23T13:45:23.755Z,102867.77
2018-05-23T13:47:50.381Z,102871.39
2018-05-23T13:50:16.581Z,102858.60
2018-05-23T13:52:42.969Z,102875.39
2018-05-23T13:55:09.664Z,102878.09
2018-05-23T13:57:35.928Z,102873.53
2018-05-23T14:00:02.419Z,102870.64
2018-05-23T14:02:29.291Z,102866.23
2018-05-23T14:04:55.484Z,102866.71
2018-05-23T14:07:21.770Z,102871.01
2018-05-23T14:09:48.829Z,102874.18
2018-05-23T14:12:15.032Z,102874.69
2018-05-23T14:14:41.396Z,102878.56
2018-05-23T14:17:08.291Z,102879.28
2018-05-23T14:19:34.522Z,102880.08
2018-05-23T14:22:01.017Z,102886.77
2018-05-23T14:24:27.695Z,102885.87
2018-05-23T14:26:53.895Z,102888.38
2018-05-23T14:29:20.364Z,102895.19
2018-05-23T14:31:46.974Z,102896.51
2018-05-23T14:34:13.154Z,102892.86
2018-05-23T14:36:39.533Z,102894.92
2018-05-23T14:39:06.200Z,102901.91
2018-05-23T14:41:32.422Z,102903.59
2018-05-23T14:43:58.779Z,102913.12
2018-05-23T14:46:25.505Z,102912.73
2018-05-23T14:48:51.744Z,102908.57
2018-05-23T14:51:18.106Z,102896.94
2018-05-23T14:53:44.517Z,102904.45
2018-05-23T14:56:10.761Z,102906.32
2018-05-23T14:58:37.147Z,102909.32
2018-05-23T15:01:03.885Z,102905.36
2018-05-23T15:03:30.085Z,102906.89
2018-05-23T15:05:56.511Z,102907.67
2018-05-23T15:08:24.186Z,102899.04
2018-05-23T15:10:50.442Z,102916.69
2018-05-23T15:13:16.793Z,102916.14
2018-05-23T15:15:43.863Z,102919.39
2018-05-23T15:18:10.096Z,102910.89
2018-05-23T15:20:36.490Z,102913.51
2018-05-23T15:23:03.170Z,102912.93
2018-05-23T15:25:29.407Z,102901.76
2018-05-23T15:27:55.806Z,102898.39
2018-05-23T15:30:22.515Z,102908.78
2018-05-23T15:32:48.766Z,102907.55
2018-05-23T15:35:15.249Z,102830.86
2018-05-23T15:37:42.077Z,102917.83
2018-05-23T15:40:08.296Z,102909.88
2018-05-23T15:42:34.881Z,102916.11
2018-05-23T15:45:01.403Z,102904.95
2018-05-23T15:47:27.611Z,102907.48
2018-05-23T15:49:54.317Z,102908.22
2018-05-23T15:52:20.981Z,102912.47
2018-05-23T15:54:47.211Z,102916.97
2018-05-23T15:57:13.734Z,102927.93
2018-05-23T15:59:40.254Z,102921.67
2018-05-23T16:02:06.499Z,102926.41
2018-05-23T16:04:33.161Z,102929.45
2018-05-23T16:06:59.868Z,102930.00
2018-05-23T16:09:26.249Z,102934.49
2018-05-23T16:11:52.539Z,102931.39
2018-05-23T16:14:19.432Z,102930.99
2018-05-23T16:16:45.700Z,102929.41
2018-05-23T16:19:12.226Z,102934.30
2018-05-23T16:21:38.829Z,102939.86
2018-05-23T16:24:05.091Z,102940.88
2018-05-23T16:26:31.681Z,102923.11
2018-05-23T16:28:58.081Z,102923.89
2018-05-23T16:31:24.446Z,102930.36
2018-05-23T16:33:50.836Z,102940.19
2018-05-23T16:36:17.543Z,102939.72
2018-05-23T16:38:43.811Z,102938.84
2018-05-23T16:41:10.221Z,102938.78
2018-05-23T16:43:37.217Z,102941.86
2018-05-23T16:46:03.448Z,102950.33
2018-05-23T16:48:29.913Z,102950.69
2018-05-23T16:50:56.563Z,102951.06
2018-05-23T16:53:22.788Z,102951.09
2018-05-23T16:55:49.185Z,102958.41
2018-05-23T16:58:15.841Z,102959.81
2018-05-23T17:00:42.070Z,102956.45
2018-05-23T17:03:08.497Z,102964.81
2018-05-23T17:05:35.446Z,102966.95
2018-05-23T17:08:01.711Z,102975.02
2018-05-23T17:10:28.179Z,102970.81
2018-05-23T17:12:54.805Z,102972.42
2018-05-23T17:15:21.093Z,102970.42
2018-05-23T17:17:47.597Z,102974.44
2018-05-23T17:20:14.216Z,102976.41
2018-05-23T17:22:40.444Z,102982.02
2018-05-23T17:25:06.802Z,102974.58
2018-05-23T17:27:33.398Z,102979.20
2018-05-23T17:29:59.672Z,102988.27
2018-05-23T17:32:26.086Z,102987.44
2018-05-23T17:34:52.629Z,102983.47
2018-05-23T17:37:18.875Z,102980.89
2018-05-23T17:39:45.474Z,102984.05
2018-05-23T17:42:12.209Z,102983.59
2018-05-23T17:44:38.427Z,102982.77
2018-05-23T17:47:04.874Z,102989.09
2018-05-23T17:49:31.758Z,102982.13
2018-05-23T17:51:58.019Z,102984.30
2018-05-23T17:54:24.533Z,102981.18
2018-05-23T17:56:51.152Z,102982.20
2018-05-23T17:59:17.379Z,102986.37
2018-05-23T18:01:43.794Z,102986.52
2018-05-23T18:04:10.298Z,102987.14
2018-05-23T18:06:36.722Z,102988.06
2018-05-23T18:09:03.134Z,102985.59
2018-05-23T18:11:29.549Z,102991.61
2018-05-23T18:13:55.756Z,102993.41
2018-05-23T18:16:22.242Z,102998.88
2018-05-23T18:18:48.851Z,102999.55
2018-05-23T18:21:15.076Z,103001.99
2018-05-23T18:23:41.528Z,103003.94
2018-05-23T18:26:08.381Z,103003.98
2018-05-23T18:28:34.629Z,103012.05
2018-05-23T18:31:01.285Z,103018.95
2018-05-23T18:33:27.949Z,103021.05
2018-05-23T18:35:54.192Z,103026.12
2018-05-23T18:38:20.561Z,103027.52
2018-05-23T18:40:47.269Z,103029.95
2018-05-23T18:43:13.520Z,103036.05
2018-05-23T18:45:39.907Z,103039.27
2018-05-23T18:48:07.025Z,103037.66
2018-05-23T18:50:33.248Z,103031.52
2018-05-23T18:52:59.902Z,103047.50
2018-05-23T18:55:26.548Z,103054.89
2018-05-23T18:57:52.874Z,103049.26
2018-05-23T19:00:19.377Z,103054.59
2018-05-23T19:02:45.859Z,103022.16
2018-05-23T19:05:12.345Z,103050.27
2018-05-23T19:07:38.886Z,103059.00
2018-05-23T19:10:05.458Z,103063.20
2018-05-23T19:12:31.737Z,103063.58
2018-05-23T19:14:58.229Z,103059.00
2018-05-23T19:17:24.927Z,103062.51
2018-05-23T19:19:51.257Z,103062.06
2018-05-23T19:22:17.709Z,103066.05
2018-05-23T19:24:44.698Z,103071.45
2018-05-23T19:27:10.847Z,103068.33
2018-05-23T19:29:37.330Z,103074.20
2018-05-23T19:32:04.144Z,103065.30
2018-05-23T19:34:30.333Z,103068.00
2018-05-23T19:36:56.851Z,103057.44
2018-05-23T19:39:23.391Z,103063.14
2018-05-23T19:41:49.642Z,103066.00
2018-05-23T19:44:17.093Z,103071.88
2018-05-23T19:46:44.053Z,103091.50
2018-05-23T19:49:10.205Z,103084.56
2018-05-23T19:51:36.539Z,103088.25
2018-05-23T19:54:03.145Z,103086.57
2018-05-23T19:56:29.423Z,103084.98
2018-05-23T19:58:55.867Z,103087.80
2018-05-23T20:01:22.828Z,103091.97
2018-05-23T20:03:49.095Z,103094.36
2018-05-23T20:06:15.476Z,103082.55
2018-05-23T20:08:42.169Z,103091.60
2018-05-23T20:11:08.436Z,103089.09
2018-05-23T20:13:34.906Z,103091.58
2018-05-23T20:16:01.262Z,103096.35
2018-05-23T20:18:27.609Z,103104.04
2018-05-23T20:20:54.138Z,103093.53
2018-05-23T20:23:20.861Z,103097.30
2018-05-23T20:25:47.091Z,103097.95
2018-05-23T20:28:13.524Z,103108.02
2018-05-23T20:30:40.023Z,103109.59
2018-05-23T20:33:06.219Z,103108.45
2018-05-23T20:35:32.767Z,103113.94
2018-05-23T20:37:59.399Z,103115.02
2018-05-23T20:40:25.610Z,103125.41
2018-05-23T20:42:51.959Z,103122.02
2018-05-23T20:45:18.471Z,103121.30
2018-05-23T20:47:44.645Z,103127.73
2018-05-23T20:50:11.098Z,103128.00
2018-05-23T20:52:37.675Z,103132.55
2018-05-23T20:55:03.841Z,103141.65
2018-05-23T20:57:30.280Z,103136.06
2018-05-23T20:59:57.091Z,103142.04
2018-05-23T21:02:23.331Z,103138.83
2018-05-23T21:04:49.722Z,103148.36
2018-05-23T21:07:16.724Z,103145.86
2018-05-23T21:09:42.909Z,103146.07
2018-05-23T21:12:09.442Z,103151.17
2018-05-23T21:14:36.096Z,103149.67
2018-05-23T21:17:02.233Z,103151.98
2018-05-23T21:19:28.602Z,103156.56
2018-05-23T21:21:55.104Z,103156.27
2018-05-23T21:24:21.262Z,103151.56
2018-05-23T21:26:47.507Z,103147.72
2018-05-23T21:29:14.375Z,103144.34
2018-05-23T21:31:40.579Z,103142.67
2018-05-23T21:34:06.980Z,103141.05
2018-05-23T21:36:33.530Z,103140.27
2018-05-23T21:38:59.719Z,103139.67
2018-05-23T21:41:26.193Z,103138.48
2018-05-23T21:43:52.911Z,103148.45
2018-05-23T21:46:19.084Z,103154.78
2018-05-23T21:48:45.557Z,103158.86
2018-05-23T21:51:12.060Z,103157.59
2018-05-23T21:53:38.290Z,103163.48
2018-05-23T21:56:04.557Z,103165.84
2018-05-23T21:58:31.235Z,103169.53
2018-05-23T22:00:57.407Z,103166.55
2018-05-23T22:03:23.765Z,103171.57
2018-05-23T22:05:50.302Z,103170.81
2018-05-23T22:08:16.471Z,103174.50
2018-05-23T22:10:43.035Z,103172.84
2018-05-23T22:13:09.737Z,103181.86
2018-05-23T22:15:35.918Z,103182.92
2018-05-23T22:18:02.250Z,103182.48
2018-05-23T22:20:28.800Z,103184.77
2018-05-23T22:22:55.019Z,103124.24
2018-05-23T22:25:21.641Z,103188.55
2018-05-23T22:27:48.117Z,103187.77
2018-05-23T22:30:14.359Z,103195.41
2018-05-23T22:32:40.718Z,103193.25
2018-05-23T22:35:07.616Z,103200.41
2018-05-23T22:37:33.804Z,103182.50
2018-05-23T22:40:00.112Z,103194.02
2018-05-23T22:42:26.769Z,103200.76
2018-05-23T22:44:52.974Z,103198.59
2018-05-23T22:47:19.335Z,103195.49
2018-05-23T22:49:45.900Z,103196.90
2018-05-23T22:52:12.065Z,103193.45
2018-05-23T22:54:38.405Z,103196.66
2018-05-23T22:57:05.214Z,103199.37
2018-05-23T22:59:31.392Z,103206.52
2018-05-23T23:01:57.818Z,103217.67
2018-05-23T23:04:24.525Z,103217.27
2018-05-23T23:06:50.793Z,103224.00
2018-05-23T23:09:17.154Z,103224.52
2018-05-23T23:11:44.018Z,103222.34
2018-05-23T23:14:10.272Z,103227.70
2018-05-23T23:16:36.762Z,103222.06
2018-05-23T23:19:03.219Z,103219.45
2018-05-23T23:21:29.541Z,103226.61
2018-05-23T23:23:55.937Z,103224.42
2018-05-23T23:26:22.652Z,103224.50
2018-05-23T23:28:48.865Z,103229.86
2018-05-23T23:31:15.206Z,103223.27
2018-05-23T23:33:41.934Z,103216.73
2018-05-23T23:36:08.124Z,103222.05
2018-05-23T23:38:34.539Z,103220.33
2018-05-23T23:41:01.005Z,103222.19
2018-05-23T23:43:27.274Z,103224.95
2018-05-23T23:45:53.884Z,103226.77
2018-05-23T23:48:20.803Z,103239.60
2018-05-23T23:50:47.037Z,103237.44
2018-05-23T23:53:13.471Z,103242.38
2018-05-23T23:55:40.007Z,103253.52
2018-05-23T23:58:06.218Z,103254.03
